sensor_id;sensor_type;location;lat;lon;timestamp;temperature;humidity
8103;DHT22;4094;49.948;11.574;2023-05-17T00:01:08;12.30;54.70
8103;DHT22;4094;49.948;11.574;2023-05-17T00:03:37;12.20;54.80
8103;DHT22;4094;49.948;11.574;2023-05-17T00:06:06;12.20;55.00
8103;DHT22;4094;49.948;11.574;2023-05-17T00:08:35;12.10;55.00
8103;DHT22;4094;49.948;11.574;2023-05-17T00:11:04;12.10;55.60
8103;DHT22;4094;49.948;11.574;2023-05-17T00:13:34;12.10;55.20
8103;DHT22;4094;49.948;11.574;2023-05-17T00:16:07;12.00;55.10
8103;DHT22;4094;49.948;11.574;2023-05-17T00:18:36;12.10;55.50
8103;DHT22;4094;49.948;11.574;2023-05-17T00:21:05;12.00;55.30
8103;DHT22;4094;49.948;11.574;2023-05-17T00:23:34;12.00;55.50
8103;DHT22;4094;49.948;11.574;2023-05-17T00:26:04;11.90;55.40
8103;DHT22;4094;49.948;11.574;2023-05-17T00:28:33;11.90;55.40
8103;DHT22;4094;49.948;11.574;2023-05-17T00:31:02;11.80;55.60
8103;DHT22;4094;49.948;11.574;2023-05-17T00:33:33;11.80;55.60
8103;DHT22;4094;49.948;11.574;2023-05-17T00:36:02;11.80;55.60
8103;DHT22;4094;49.948;11.574;2023-05-17T00:38:58;11.80;55.70
8103;DHT22;4094;49.948;11.574;2023-05-17T00:41:57;11.70;55.90
8103;DHT22;4094;49.948;11.574;2023-05-17T00:45:08;11.70;55.80
8103;DHT22;4094;49.948;11.574;2023-05-17T00:47:37;11.60;55.90
8103;DHT22;4094;49.948;11.574;2023-05-17T00:50:09;11.60;56.00
8103;DHT22;4094;49.948;11.574;2023-05-17T00:52:38;11.60;56.10
8103;DHT22;4094;49.948;11.574;2023-05-17T00:55:07;11.50;56.20
8103;DHT22;4094;49.948;11.574;2023-05-17T00:57:45;11.50;56.20
8103;DHT22;4094;49.948;11.574;2023-05-17T01:00:51;11.50;56.50
8103;DHT22;4094;49.948;11.574;2023-05-17T01:03:20;11.40;56.50
8103;DHT22;4094;49.948;11.574;2023-05-17T01:05:52;11.40;56.60
8103;DHT22;4094;49.948;11.574;2023-05-17T01:08:21;11.40;56.50
8103;DHT22;4094;49.948;11.574;2023-05-17T01:10:56;11.40;56.60
8103;DHT22;4094;49.948;11.574;2023-05-17T01:13:33;11.30;56.60
8103;DHT22;4094;49.948;11.574;2023-05-17T01:16:09;11.30;56.70
8103;DHT22;4094;49.948;11.574;2023-05-17T01:18:45;11.30;56.70
8103;DHT22;4094;49.948;11.574;2023-05-17T01:21:31;11.30;56.70
8103;DHT22;4094;49.948;11.574;2023-05-17T01:24:15;11.30;56.90
8103;DHT22;4094;49.948;11.574;2023-05-17T01:26:48;11.30;56.90
8103;DHT22;4094;49.948;11.574;2023-05-17T01:29:22;11.20;56.90
8103;DHT22;4094;49.948;11.574;2023-05-17T01:31:53;11.30;57.00
8103;DHT22;4094;49.948;11.574;2023-05-17T01:34:24;11.20;56.90
8103;DHT22;4094;49.948;11.574;2023-05-17T01:36:54;11.20;57.50
8103;DHT22;4094;49.948;11.574;2023-05-17T01:39:24;11.20;56.90
8103;DHT22;4094;49.948;11.574;2023-05-17T01:41:59;11.10;56.90
8103;DHT22;4094;49.948;11.574;2023-05-17T01:44:37;11.10;57.10
8103;DHT22;4094;49.948;11.574;2023-05-17T01:47:14;11.10;57.00
8103;DHT22;4094;49.948;11.574;2023-05-17T01:49:47;11.10;57.20
8103;DHT22;4094;49.948;11.574;2023-05-17T01:52:25;11.10;57.30
8103;DHT22;4094;49.948;11.574;2023-05-17T01:55:05;11.10;57.20
8103;DHT22;4094;49.948;11.574;2023-05-17T01:57:39;11.00;57.20
8103;DHT22;4094;49.948;11.574;2023-05-17T02:00:10;11.00;57.80
8103;DHT22;4094;49.948;11.574;2023-05-17T02:02:45;10.90;57.30
8103;DHT22;4094;49.948;11.574;2023-05-17T02:05:14;10.90;57.30
8103;DHT22;4094;49.948;11.574;2023-05-17T02:07:43;10.90;57.60
8103;DHT22;4094;49.948;11.574;2023-05-17T02:10:13;10.90;57.60
8103;DHT22;4094;49.948;11.574;2023-05-17T02:12:44;10.80;57.60
8103;DHT22;4094;49.948;11.574;2023-05-17T02:15:13;10.80;57.70
8103;DHT22;4094;49.948;11.574;2023-05-17T02:17:43;10.80;57.70
8103;DHT22;4094;49.948;11.574;2023-05-17T02:20:14;10.70;57.70
8103;DHT22;4094;49.948;11.574;2023-05-17T02:22:43;10.70;57.80
8103;DHT22;4094;49.948;11.574;2023-05-17T02:25:13;10.70;57.70
8103;DHT22;4094;49.948;11.574;2023-05-17T02:27:43;10.70;57.80
8103;DHT22;4094;49.948;11.574;2023-05-17T02:30:13;10.70;57.90
8103;DHT22;4094;49.948;11.574;2023-05-17T02:32:45;10.60;57.90
8103;DHT22;4094;49.948;11.574;2023-05-17T02:35:14;10.60;57.80
8103;DHT22;4094;49.948;11.574;2023-05-17T02:37:44;10.60;57.80
8103;DHT22;4094;49.948;11.574;2023-05-17T02:40:13;10.60;57.90
8103;DHT22;4094;49.948;11.574;2023-05-17T02:42:43;10.60;57.90
8103;DHT22;4094;49.948;11.574;2023-05-17T02:45:12;10.60;57.90
8103;DHT22;4094;49.948;11.574;2023-05-17T02:47:41;10.50;57.80
8103;DHT22;4094;49.948;11.574;2023-05-17T02:50:11;10.50;57.80
8103;DHT22;4094;49.948;11.574;2023-05-17T02:52:40;10.50;57.80
8103;DHT22;4094;49.948;11.574;2023-05-17T02:55:09;10.50;57.90
8103;DHT22;4094;49.948;11.574;2023-05-17T02:57:38;10.50;57.90
8103;DHT22;4094;49.948;11.574;2023-05-17T03:00:09;10.40;58.00
8103;DHT22;4094;49.948;11.574;2023-05-17T03:02:38;10.40;58.00
8103;DHT22;4094;49.948;11.574;2023-05-17T03:05:07;10.40;58.10
8103;DHT22;4094;49.948;11.574;2023-05-17T03:07:40;10.40;58.20
8103;DHT22;4094;49.948;11.574;2023-05-17T03:10:09;10.30;58.20
8103;DHT22;4094;49.948;11.574;2023-05-17T03:12:43;10.30;58.40
8103;DHT22;4094;49.948;11.574;2023-05-17T03:15:15;10.30;58.40
8103;DHT22;4094;49.948;11.574;2023-05-17T03:17:44;10.20;58.40
8103;DHT22;4094;49.948;11.574;2023-05-17T03:20:16;10.20;58.30
8103;DHT22;4094;49.948;11.574;2023-05-17T03:22:47;10.20;58.50
8103;DHT22;4094;49.948;11.574;2023-05-17T03:25:17;10.10;58.90
8103;DHT22;4094;49.948;11.574;2023-05-17T03:27:46;10.10;58.30
8103;DHT22;4094;49.948;11.574;2023-05-17T03:30:17;10.10;58.30
8103;DHT22;4094;49.948;11.574;2023-05-17T03:32:46;10.10;58.40
8103;DHT22;4094;49.948;11.574;2023-05-17T03:35:16;10.10;58.40
8103;DHT22;4094;49.948;11.574;2023-05-17T03:37:49;10.00;58.40
8103;DHT22;4094;49.948;11.574;2023-05-17T03:40:18;10.00;58.40
8103;DHT22;4094;49.948;11.574;2023-05-17T03:42:47;10.00;58.60
8103;DHT22;4094;49.948;11.574;2023-05-17T03:45:20;9.90;58.60
8103;DHT22;4094;49.948;11.574;2023-05-17T03:47:49;9.90;58.70
8103;DHT22;4094;49.948;11.574;2023-05-17T03:50:19;9.90;58.70
8103;DHT22;4094;49.948;11.574;2023-05-17T03:52:48;9.90;58.80
8103;DHT22;4094;49.948;11.574;2023-05-17T03:55:18;9.80;58.90
8103;DHT22;4094;49.948;11.574;2023-05-17T03:57:47;9.80;59.40
8103;DHT22;4094;49.948;11.574;2023-05-17T04:00:16;9.80;58.90
8103;DHT22;4094;49.948;11.574;2023-05-17T04:02:50;9.70;58.90
8103;DHT22;4094;49.948;11.574;2023-05-17T04:05:20;9.70;59.00
8103;DHT22;4094;49.948;11.574;2023-05-17T04:07:50;9.70;59.10
8103;DHT22;4094;49.948;11.574;2023-05-17T04:10:19;9.60;59.10
8103;DHT22;4094;49.948;11.574;2023-05-17T04:12:48;9.60;59.20
8103;DHT22;4094;49.948;11.574;2023-05-17T04:15:17;9.60;59.20
8103;DHT22;4094;49.948;11.574;2023-05-17T04:17:49;9.60;59.30
8103;DHT22;4094;49.948;11.574;2023-05-17T04:20:19;9.60;59.40
8103;DHT22;4094;49.948;11.574;2023-05-17T04:22:49;9.60;59.40
8103;DHT22;4094;49.948;11.574;2023-05-17T04:25:19;9.60;59.60
8103;DHT22;4094;49.948;11.574;2023-05-17T04:27:51;9.60;59.60
8103;DHT22;4094;49.948;11.574;2023-05-17T04:30:21;9.60;59.50
8103;DHT22;4094;49.948;11.574;2023-05-17T04:32:52;9.60;59.40
8103;DHT22;4094;49.948;11.574;2023-05-17T04:35:21;9.70;59.50
8103;DHT22;4094;49.948;11.574;2023-05-17T04:37:53;9.60;59.40
8103;DHT22;4094;49.948;11.574;2023-05-17T04:40:22;9.70;59.50
8103;DHT22;4094;49.948;11.574;2023-05-17T04:42:52;9.70;59.50
8103;DHT22;4094;49.948;11.574;2023-05-17T04:45:21;9.70;59.40
8103;DHT22;4094;49.948;11.574;2023-05-17T04:47:51;9.70;59.50
8103;DHT22;4094;49.948;11.574;2023-05-17T04:50:21;9.70;59.60
8103;DHT22;4094;49.948;11.574;2023-05-17T04:52:51;9.70;59.50
8103;DHT22;4094;49.948;11.574;2023-05-17T04:55:20;9.80;59.60
8103;DHT22;4094;49.948;11.574;2023-05-17T04:57:50;9.80;59.60
8103;DHT22;4094;49.948;11.574;2023-05-17T05:00:20;9.80;59.50
8103;DHT22;4094;49.948;11.574;2023-05-17T05:03:00;9.90;59.70
8103;DHT22;4094;49.948;11.574;2023-05-17T05:05:35;9.90;59.60
8103;DHT22;4094;49.948;11.574;2023-05-17T05:08:04;10.00;59.50
8103;DHT22;4094;49.948;11.574;2023-05-17T05:10:33;10.00;59.60
8103;DHT22;4094;49.948;11.574;2023-05-17T05:13:03;10.10;59.70
8103;DHT22;4094;49.948;11.574;2023-05-17T05:15:33;10.10;59.60
8103;DHT22;4094;49.948;11.574;2023-05-17T05:18:04;10.20;59.60
8103;DHT22;4094;49.948;11.574;2023-05-17T05:20:33;10.30;59.60
8103;DHT22;4094;49.948;11.574;2023-05-17T05:23:04;10.40;59.60
8103;DHT22;4094;49.948;11.574;2023-05-17T05:25:36;10.40;59.60
8103;DHT22;4094;49.948;11.574;2023-05-17T05:28:06;10.50;59.40
8103;DHT22;4094;49.948;11.574;2023-05-17T05:30:38;10.60;59.30
8103;DHT22;4094;49.948;11.574;2023-05-17T05:33:09;10.70;59.30
8103;DHT22;4094;49.948;11.574;2023-05-17T05:35:38;10.80;59.30
8103;DHT22;4094;49.948;11.574;2023-05-17T05:38:08;10.90;59.20
8103;DHT22;4094;49.948;11.574;2023-05-17T05:40:37;10.90;59.00
8103;DHT22;4094;49.948;11.574;2023-05-17T05:43:06;11.00;59.10
8103;DHT22;4094;49.948;11.574;2023-05-17T05:45:35;11.10;59.20
8103;DHT22;4094;49.948;11.574;2023-05-17T05:48:04;11.20;59.10
8103;DHT22;4094;49.948;11.574;2023-05-17T05:50:37;11.30;59.10
8103;DHT22;4094;49.948;11.574;2023-05-17T05:53:10;11.40;59.20
8103;DHT22;4094;49.948;11.574;2023-05-17T05:55:55;11.50;59.00
8103;DHT22;4094;49.948;11.574;2023-05-17T05:58:25;11.60;58.90
8103;DHT22;4094;49.948;11.574;2023-05-17T06:00:55;11.70;58.80
8103;DHT22;4094;49.948;11.574;2023-05-17T06:03:24;11.80;58.70
8103;DHT22;4094;49.948;11.574;2023-05-17T06:05:55;11.90;58.50
8103;DHT22;4094;49.948;11.574;2023-05-17T06:08:24;11.90;58.40
8103;DHT22;4094;49.948;11.574;2023-05-17T06:10:53;12.00;58.50
8103;DHT22;4094;49.948;11.574;2023-05-17T06:13:22;12.00;58.30
8103;DHT22;4094;49.948;11.574;2023-05-17T06:15:51;12.10;58.40
8103;DHT22;4094;49.948;11.574;2023-05-17T06:18:21;12.10;58.60
8103;DHT22;4094;49.948;11.574;2023-05-17T06:20:50;12.20;58.60
8103;DHT22;4094;49.948;11.574;2023-05-17T06:23:20;12.30;58.60
8103;DHT22;4094;49.948;11.574;2023-05-17T06:25:52;12.40;58.60
8103;DHT22;4094;49.948;11.574;2023-05-17T06:28:21;12.40;58.30
8103;DHT22;4094;49.948;11.574;2023-05-17T06:30:50;12.50;58.30
8103;DHT22;4094;49.948;11.574;2023-05-17T06:33:22;12.50;58.20
8103;DHT22;4094;49.948;11.574;2023-05-17T06:36:05;12.60;58.10
8103;DHT22;4094;49.948;11.574;2023-05-17T06:39:22;12.60;58.00
8103;DHT22;4094;49.948;11.574;2023-05-17T06:41:51;12.70;58.20
8103;DHT22;4094;49.948;11.574;2023-05-17T06:44:20;12.70;58.20
8103;DHT22;4094;49.948;11.574;2023-05-17T06:46:50;12.80;58.40
8103;DHT22;4094;49.948;11.574;2023-05-17T06:49:21;12.80;58.30
8103;DHT22;4094;49.948;11.574;2023-05-17T06:51:50;12.90;58.20
8103;DHT22;4094;49.948;11.574;2023-05-17T06:54:22;12.90;57.80
8103;DHT22;4094;49.948;11.574;2023-05-17T06:56:52;13.00;57.90
8103;DHT22;4094;49.948;11.574;2023-05-17T06:59:21;13.00;57.90
8103;DHT22;4094;49.948;11.574;2023-05-17T07:01:56;13.00;57.80
8103;DHT22;4094;49.948;11.574;2023-05-17T07:04:26;13.10;58.20
8103;DHT22;4094;49.948;11.574;2023-05-17T07:06:56;13.10;57.70
8103;DHT22;4094;49.948;11.574;2023-05-17T07:09:26;13.10;57.70
8103;DHT22;4094;49.948;11.574;2023-05-17T07:11:58;13.20;57.60
8103;DHT22;4094;49.948;11.574;2023-05-17T07:14:27;13.20;57.70
8103;DHT22;4094;49.948;11.574;2023-05-17T07:16:57;13.30;57.80
8103;DHT22;4094;49.948;11.574;2023-05-17T07:19:26;13.30;57.80
8103;DHT22;4094;49.948;11.574;2023-05-17T07:21:56;13.30;57.90
8103;DHT22;4094;49.948;11.574;2023-05-17T07:24:25;13.40;58.10
8103;DHT22;4094;49.948;11.574;2023-05-17T07:26:55;13.40;57.80
8103;DHT22;4094;49.948;11.574;2023-05-17T07:29:24;13.40;57.60
8103;DHT22;4094;49.948;11.574;2023-05-17T07:31:54;13.50;57.70
8103;DHT22;4094;49.948;11.574;2023-05-17T07:34:23;13.50;57.80
8103;DHT22;4094;49.948;11.574;2023-05-17T07:36:52;13.60;57.80
8103;DHT22;4094;49.948;11.574;2023-05-17T07:39:32;13.70;57.80
8103;DHT22;4094;49.948;11.574;2023-05-17T07:42:28;13.70;57.70
8103;DHT22;4094;49.948;11.574;2023-05-17T07:44:57;13.80;57.10
8103;DHT22;4094;49.948;11.574;2023-05-17T07:47:27;13.90;57.00
8103;DHT22;4094;49.948;11.574;2023-05-17T07:49:56;13.90;57.10
8103;DHT22;4094;49.948;11.574;2023-05-17T07:52:26;14.00;57.10
8103;DHT22;4094;49.948;11.574;2023-05-17T07:54:55;14.00;56.40
8103;DHT22;4094;49.948;11.574;2023-05-17T07:57:24;14.00;56.50
8103;DHT22;4094;49.948;11.574;2023-05-17T07:59:55;14.10;55.70
8103;DHT22;4094;49.948;11.574;2023-05-17T08:02:24;14.00;55.50
8103;DHT22;4094;49.948;11.574;2023-05-17T08:04:54;14.00;55.80
8103;DHT22;4094;49.948;11.574;2023-05-17T08:07:23;14.00;55.90
8103;DHT22;4094;49.948;11.574;2023-05-17T08:09:52;14.00;55.70
8103;DHT22;4094;49.948;11.574;2023-05-17T08:12:21;14.00;56.10
8103;DHT22;4094;49.948;11.574;2023-05-17T08:14:54;14.10;55.50
8103;DHT22;4094;49.948;11.574;2023-05-17T08:17:30;14.00;55.50
8103;DHT22;4094;49.948;11.574;2023-05-17T08:20:15;14.00;55.10
8103;DHT22;4094;49.948;11.574;2023-05-17T08:22:44;14.00;55.60
8103;DHT22;4094;49.948;11.574;2023-05-17T08:25:13;14.00;55.20
8103;DHT22;4094;49.948;11.574;2023-05-17T08:27:42;14.00;55.30
8103;DHT22;4094;49.948;11.574;2023-05-17T08:30:13;14.00;55.50
8103;DHT22;4094;49.948;11.574;2023-05-17T08:32:55;14.10;55.20
8103;DHT22;4094;49.948;11.574;2023-05-17T08:35:24;14.10;55.50
8103;DHT22;4094;49.948;11.574;2023-05-17T08:37:56;14.10;55.70
8103;DHT22;4094;49.948;11.574;2023-05-17T08:40:26;14.20;55.70
8103;DHT22;4094;49.948;11.574;2023-05-17T08:42:56;14.20;55.60
8103;DHT22;4094;49.948;11.574;2023-05-17T08:45:27;14.30;55.50
8103;DHT22;4094;49.948;11.574;2023-05-17T08:47:57;14.40;55.60
8103;DHT22;4094;49.948;11.574;2023-05-17T08:50:28;14.40;55.50
8103;DHT22;4094;49.948;11.574;2023-05-17T08:52:59;14.50;55.70
8103;DHT22;4094;49.948;11.574;2023-05-17T08:55:30;14.60;55.60
8103;DHT22;4094;49.948;11.574;2023-05-17T08:58:01;14.60;55.00
8103;DHT22;4094;49.948;11.574;2023-05-17T09:00:32;14.70;55.00
8103;DHT22;4094;49.948;11.574;2023-05-17T09:03:02;14.70;54.80
8103;DHT22;4094;49.948;11.574;2023-05-17T09:05:33;14.80;54.10
8103;DHT22;4094;49.948;11.574;2023-05-17T09:08:03;14.80;54.00
8103;DHT22;4094;49.948;11.574;2023-05-17T09:10:33;14.90;54.10
8103;DHT22;4094;49.948;11.574;2023-05-17T09:13:02;14.90;54.20
8103;DHT22;4094;49.948;11.574;2023-05-17T09:15:51;14.90;53.50
8103;DHT22;4094;49.948;11.574;2023-05-17T09:18:28;14.90;53.50
8103;DHT22;4094;49.948;11.574;2023-05-17T09:21:01;14.90;53.60
8103;DHT22;4094;49.948;11.574;2023-05-17T09:23:31;15.00;53.70
8103;DHT22;4094;49.948;11.574;2023-05-17T09:26:04;14.90;53.30
8103;DHT22;4094;49.948;11.574;2023-05-17T09:28:39;14.90;53.30
8103;DHT22;4094;49.948;11.574;2023-05-17T09:31:10;14.90;53.60
8103;DHT22;4094;49.948;11.574;2023-05-17T09:33:42;14.90;53.90
8103;DHT22;4094;49.948;11.574;2023-05-17T09:36:17;14.90;53.60
8103;DHT22;4094;49.948;11.574;2023-05-17T09:38:53;14.90;53.70
8103;DHT22;4094;49.948;11.574;2023-05-17T09:41:25;14.90;53.50
8103;DHT22;4094;49.948;11.574;2023-05-17T09:43:58;14.90;53.00
8103;DHT22;4094;49.948;11.574;2023-05-17T09:46:32;14.90;53.00
8103;DHT22;4094;49.948;11.574;2023-05-17T09:49:02;14.90;53.10
8103;DHT22;4094;49.948;11.574;2023-05-17T09:51:32;14.90;52.90
8103;DHT22;4094;49.948;11.574;2023-05-17T09:54:02;14.90;53.30
8103;DHT22;4094;49.948;11.574;2023-05-17T09:56:31;14.90;53.50
8103;DHT22;4094;49.948;11.574;2023-05-17T09:59:02;14.90;53.40
8103;DHT22;4094;49.948;11.574;2023-05-17T10:01:33;15.00;53.00
8103;DHT22;4094;49.948;11.574;2023-05-17T10:04:03;15.00;53.20
8103;DHT22;4094;49.948;11.574;2023-05-17T10:06:33;15.00;53.00
8103;DHT22;4094;49.948;11.574;2023-05-17T10:09:16;15.00;53.30
8103;DHT22;4094;49.948;11.574;2023-05-17T10:11:46;15.00;52.30
8103;DHT22;4094;49.948;11.574;2023-05-17T10:14:17;15.00;52.10
8103;DHT22;4094;49.948;11.574;2023-05-17T10:16:51;15.00;52.40
8103;DHT22;4094;49.948;11.574;2023-05-17T10:19:22;15.00;52.70
8103;DHT22;4094;49.948;11.574;2023-05-17T10:21:52;15.10;53.00
8103;DHT22;4094;49.948;11.574;2023-05-17T10:24:35;15.10;53.60
8103;DHT22;4094;49.948;11.574;2023-05-17T10:27:05;15.10;53.10
8103;DHT22;4094;49.948;11.574;2023-05-17T10:29:35;15.10;52.30
8103;DHT22;4094;49.948;11.574;2023-05-17T10:32:07;15.10;52.00
8103;DHT22;4094;49.948;11.574;2023-05-17T10:34:38;15.10;52.70
8103;DHT22;4094;49.948;11.574;2023-05-17T10:37:12;15.10;51.70
8103;DHT22;4094;49.948;11.574;2023-05-17T10:39:42;15.10;51.00
8103;DHT22;4094;49.948;11.574;2023-05-17T10:42:15;15.10;51.70
8103;DHT22;4094;49.948;11.574;2023-05-17T10:44:45;15.10;51.90
8103;DHT22;4094;49.948;11.574;2023-05-17T10:47:17;15.10;52.10
8103;DHT22;4094;49.948;11.574;2023-05-17T10:49:46;15.10;52.30
8103;DHT22;4094;49.948;11.574;2023-05-17T10:52:23;15.20;52.40
8103;DHT22;4094;49.948;11.574;2023-05-17T10:55:06;15.20;53.10
8103;DHT22;4094;49.948;11.574;2023-05-17T10:57:36;15.30;52.30
8103;DHT22;4094;49.948;11.574;2023-05-17T11:00:19;15.30;52.20
8103;DHT22;4094;49.948;11.574;2023-05-17T11:02:50;15.40;52.00
8103;DHT22;4094;49.948;11.574;2023-05-17T11:05:22;15.50;51.80
8103;DHT22;4094;49.948;11.574;2023-05-17T11:07:51;15.50;51.80
8103;DHT22;4094;49.948;11.574;2023-05-17T11:10:23;15.50;51.20
8103;DHT22;4094;49.948;11.574;2023-05-17T11:12:53;15.60;51.10
8103;DHT22;4094;49.948;11.574;2023-05-17T11:15:24;15.60;51.30
8103;DHT22;4094;49.948;11.574;2023-05-17T11:17:56;15.60;51.10
8103;DHT22;4094;49.948;11.574;2023-05-17T11:20:30;15.70;51.10
8103;DHT22;4094;49.948;11.574;2023-05-17T11:23:03;15.70;51.20
8103;DHT22;4094;49.948;11.574;2023-05-17T11:25:33;15.70;50.70
8103;DHT22;4094;49.948;11.574;2023-05-17T11:28:07;15.70;49.80
8103;DHT22;4094;49.948;11.574;2023-05-17T11:30:40;15.70;50.30
8103;DHT22;4094;49.948;11.574;2023-05-17T11:33:16;15.70;50.40
8103;DHT22;4094;49.948;11.574;2023-05-17T11:36:04;15.60;50.70
8103;DHT22;4094;49.948;11.574;2023-05-17T11:38:34;15.60;51.30
8103;DHT22;4094;49.948;11.574;2023-05-17T11:41:16;15.60;51.00
8103;DHT22;4094;49.948;11.574;2023-05-17T11:43:48;15.70;50.50
8103;DHT22;4094;49.948;11.574;2023-05-17T11:46:19;15.60;50.60
8103;DHT22;4094;49.948;11.574;2023-05-17T11:48:51;15.60;50.90
8103;DHT22;4094;49.948;11.574;2023-05-17T11:51:21;15.60;50.70
8103;DHT22;4094;49.948;11.574;2023-05-17T11:53:53;15.70;50.70
8103;DHT22;4094;49.948;11.574;2023-05-17T11:56:23;15.70;50.30
8103;DHT22;4094;49.948;11.574;2023-05-17T11:59:09;15.70;50.10
8103;DHT22;4094;49.948;11.574;2023-05-17T12:01:44;15.70;50.20
8103;DHT22;4094;49.948;11.574;2023-05-17T12:04:22;15.70;49.60
8103;DHT22;4094;49.948;11.574;2023-05-17T12:06:53;15.70;49.80
8103;DHT22;4094;49.948;11.574;2023-05-17T12:09:23;15.80;49.90
8103;DHT22;4094;49.948;11.574;2023-05-17T12:11:53;15.80;50.30
8103;DHT22;4094;49.948;11.574;2023-05-17T12:14:23;15.90;49.20
8103;DHT22;4094;49.948;11.574;2023-05-17T12:16:53;16.00;49.40
8103;DHT22;4094;49.948;11.574;2023-05-17T12:19:24;16.10;49.70
8103;DHT22;4094;49.948;11.574;2023-05-17T12:22:05;16.20;49.70
8103;DHT22;4094;49.948;11.574;2023-05-17T12:24:36;16.30;49.50
8103;DHT22;4094;49.948;11.574;2023-05-17T12:27:05;16.40;49.80
8103;DHT22;4094;49.948;11.574;2023-05-17T12:29:34;16.40;49.70
8103;DHT22;4094;49.948;11.574;2023-05-17T12:32:05;16.50;49.60
8103;DHT22;4094;49.948;11.574;2023-05-17T12:34:37;16.50;49.90
8103;DHT22;4094;49.948;11.574;2023-05-17T12:37:07;16.60;49.50
8103;DHT22;4094;49.948;11.574;2023-05-17T12:39:38;16.60;48.90
8103;DHT22;4094;49.948;11.574;2023-05-17T12:42:08;16.60;48.90
8103;DHT22;4094;49.948;11.574;2023-05-17T12:44:38;16.60;48.70
8103;DHT22;4094;49.948;11.574;2023-05-17T12:47:09;16.60;49.00
8103;DHT22;4094;49.948;11.574;2023-05-17T12:49:51;16.50;48.40
8103;DHT22;4094;49.948;11.574;2023-05-17T12:52:24;16.50;48.70
8103;DHT22;4094;49.948;11.574;2023-05-17T12:54:53;16.50;48.30
8103;DHT22;4094;49.948;11.574;2023-05-17T12:57:22;16.50;47.80
8103;DHT22;4094;49.948;11.574;2023-05-17T12:59:52;16.50;47.80
8103;DHT22;4094;49.948;11.574;2023-05-17T13:02:21;16.50;48.90
8103;DHT22;4094;49.948;11.574;2023-05-17T13:04:52;16.60;48.90
8103;DHT22;4094;49.948;11.574;2023-05-17T13:07:22;16.70;48.70
8103;DHT22;4094;49.948;11.574;2023-05-17T13:09:52;16.80;48.50
8103;DHT22;4094;49.948;11.574;2023-05-17T13:12:22;16.80;47.60
8103;DHT22;4094;49.948;11.574;2023-05-17T13:14:52;16.80;47.90
8103;DHT22;4094;49.948;11.574;2023-05-17T13:17:24;16.80;47.30
8103;DHT22;4094;49.948;11.574;2023-05-17T13:19:55;16.90;47.20
8103;DHT22;4094;49.948;11.574;2023-05-17T13:22:25;16.90;47.00
8103;DHT22;4094;49.948;11.574;2023-05-17T13:24:55;16.80;47.20
8103;DHT22;4094;49.948;11.574;2023-05-17T13:27:24;16.80;47.00
8103;DHT22;4094;49.948;11.574;2023-05-17T13:29:53;16.80;47.60
8103;DHT22;4094;49.948;11.574;2023-05-17T13:32:22;16.80;47.30
8103;DHT22;4094;49.948;11.574;2023-05-17T13:34:52;16.90;47.60
8103;DHT22;4094;49.948;11.574;2023-05-17T13:37:23;16.80;47.50
8103;DHT22;4094;49.948;11.574;2023-05-17T13:39:52;16.80;47.50
8103;DHT22;4094;49.948;11.574;2023-05-17T13:42:23;16.90;47.60
8103;DHT22;4094;49.948;11.574;2023-05-17T13:44:52;16.90;47.70
8103;DHT22;4094;49.948;11.574;2023-05-17T13:47:21;16.80;47.40
8103;DHT22;4094;49.948;11.574;2023-05-17T13:49:52;16.90;47.90
8103;DHT22;4094;49.948;11.574;2023-05-17T13:52:22;16.90;47.50
8103;DHT22;4094;49.948;11.574;2023-05-17T13:54:52;16.90;48.30
8103;DHT22;4094;49.948;11.574;2023-05-17T13:57:21;16.90;48.10
8103;DHT22;4094;49.948;11.574;2023-05-17T13:59:50;17.00;47.80
8103;DHT22;4094;49.948;11.574;2023-05-17T14:02:19;17.00;47.90
8103;DHT22;4094;49.948;11.574;2023-05-17T14:04:49;17.00;47.90
8103;DHT22;4094;49.948;11.574;2023-05-17T14:07:18;17.00;47.50
8103;DHT22;4094;49.948;11.574;2023-05-17T14:09:49;17.10;47.50
8103;DHT22;4094;49.948;11.574;2023-05-17T14:12:18;17.20;47.80
8103;DHT22;4094;49.948;11.574;2023-05-17T14:14:48;17.20;47.50
8103;DHT22;4094;49.948;11.574;2023-05-17T14:17:17;17.30;47.50
8103;DHT22;4094;49.948;11.574;2023-05-17T14:19:47;17.30;47.40
8103;DHT22;4094;49.948;11.574;2023-05-17T14:22:16;17.40;47.10
8103;DHT22;4094;49.948;11.574;2023-05-17T14:24:46;17.40;47.20
8103;DHT22;4094;49.948;11.574;2023-05-17T14:27:16;17.50;46.60
8103;DHT22;4094;49.948;11.574;2023-05-17T14:29:45;17.50;46.90
8103;DHT22;4094;49.948;11.574;2023-05-17T14:32:14;17.60;46.90
8103;DHT22;4094;49.948;11.574;2023-05-17T14:34:44;17.60;46.50
8103;DHT22;4094;49.948;11.574;2023-05-17T14:37:13;17.60;46.50
8103;DHT22;4094;49.948;11.574;2023-05-17T14:39:42;17.70;46.50
8103;DHT22;4094;49.948;11.574;2023-05-17T14:42:33;17.70;45.70
8103;DHT22;4094;49.948;11.574;2023-05-17T14:45:02;17.70;45.70
8103;DHT22;4094;49.948;11.574;2023-05-17T14:47:32;17.70;46.10
8103;DHT22;4094;49.948;11.574;2023-05-17T14:50:04;17.70;46.30
8103;DHT22;4094;49.948;11.574;2023-05-17T14:52:33;17.70;46.50
8103;DHT22;4094;49.948;11.574;2023-05-17T14:55:04;17.70;46.30
8103;DHT22;4094;49.948;11.574;2023-05-17T14:57:34;17.70;45.90
8103;DHT22;4094;49.948;11.574;2023-05-17T15:00:05;17.60;45.50
8103;DHT22;4094;49.948;11.574;2023-05-17T15:02:37;17.70;45.90
8103;DHT22;4094;49.948;11.574;2023-05-17T15:05:07;17.60;45.60
8103;DHT22;4094;49.948;11.574;2023-05-17T15:07:37;17.60;45.90
8103;DHT22;4094;49.948;11.574;2023-05-17T15:10:07;17.60;46.20
8103;DHT22;4094;49.948;11.574;2023-05-17T15:12:37;17.60;45.90
8103;DHT22;4094;49.948;11.574;2023-05-17T15:15:08;17.70;46.20
8103;DHT22;4094;49.948;11.574;2023-05-17T15:17:37;17.70;46.50
8103;DHT22;4094;49.948;11.574;2023-05-17T15:20:08;17.70;46.30
8103;DHT22;4094;49.948;11.574;2023-05-17T15:22:37;17.80;45.90
8103;DHT22;4094;49.948;11.574;2023-05-17T15:25:07;17.80;45.70
8103;DHT22;4094;49.948;11.574;2023-05-17T15:27:38;17.80;46.10
8103;DHT22;4094;49.948;11.574;2023-05-17T15:30:08;17.80;46.10
8103;DHT22;4094;49.948;11.574;2023-05-17T15:32:40;17.70;45.90
8103;DHT22;4094;49.948;11.574;2023-05-17T15:35:10;17.70;45.20
8103;DHT22;4094;49.948;11.574;2023-05-17T15:37:39;17.60;45.40
8103;DHT22;4094;49.948;11.574;2023-05-17T15:40:09;17.60;44.70
8103;DHT22;4094;49.948;11.574;2023-05-17T15:42:40;17.50;44.50
8103;DHT22;4094;49.948;11.574;2023-05-17T15:45:09;17.50;44.80
8103;DHT22;4094;49.948;11.574;2023-05-17T15:47:39;17.50;45.10
8103;DHT22;4094;49.948;11.574;2023-05-17T15:50:11;17.50;45.30
8103;DHT22;4094;49.948;11.574;2023-05-17T15:52:40;17.50;45.10
8103;DHT22;4094;49.948;11.574;2023-05-17T15:55:10;17.50;45.30
8103;DHT22;4094;49.948;11.574;2023-05-17T15:57:41;17.60;45.30
8103;DHT22;4094;49.948;11.574;2023-05-17T16:00:11;17.60;45.10
8103;DHT22;4094;49.948;11.574;2023-05-17T16:02:40;17.70;45.30
8103;DHT22;4094;49.948;11.574;2023-05-17T16:05:09;17.80;45.40
8103;DHT22;4094;49.948;11.574;2023-05-17T16:07:38;17.80;45.20
8103;DHT22;4094;49.948;11.574;2023-05-17T16:10:08;17.90;44.90
8103;DHT22;4094;49.948;11.574;2023-05-17T16:12:37;17.90;44.70
8103;DHT22;4094;49.948;11.574;2023-05-17T16:15:09;17.90;44.50